Rufe, OK (74755)

2:51 PM CDT on June 30, 2015 (GMT -0500)
HADS | | Change Station
CLOSE
Current Station
Personal Weather Station
Location: Rufe, OK
Elevation: 490 ft
Nearby Weather Stations
Active Advisory: Flood Warning

Elev 490 ft 34.11 °N, 95.08 °W | Updated 51 minutes ago

Clear
Clear
90.0 °F
Feels Like 96 °F
N
1.0
Wind Variable Wind from WSW
Gusts 0.0 mph

Today
High -- | Low -- °F
--% Chance of Precip.
Yesterday
High -- | Low -- °F
Precip. -- in
6:11 AM 8:36 PM
Waxing Gibbous, 98% visible
Pressure 29.98 in
Visibility 10.0 miles
Clouds Clear
Heat Index 96 °F
Dew Point 70.0 °F
Humidity 52%
Rainfall in
Snow Depth Not available.
UV 11 out of 12
Pollen 3.80 out of 12
Air Quality Not available.
Flu Activity Sporadic
METAR K4O4 301935Z AUTO 22006KT 10SM CLR 33/19 A2998 RMK AO2

More Conditions Fewer Conditions

Pressure 29.98 in
Visibility 10.0 miles
Clouds Clear
Heat Index 96 °F
Dew Point 70.0 °F
Humidity 52%
Rainfall in
Snow Depth Not available.
UV 11 out of 12
Pollen 3.80 out of 12
Air Quality Not available.
Flu Activity Sporadic
METAR K4O4 301935Z AUTO 22006KT 10SM CLR 33/19 A2998 RMK AO2

More Conditions Fewer Conditions

10-Day Weather Forecast

×

Almanac

Astronomy

Jun. 30, 2015 Rise Set
Actual Time
Civil Twilight
Nautical Twilight
Astronomical Twilight
Moon
Length of Visible Light
Length of Day
Tomorrow will be .
, % of the Moon is Illuminated

Today's Extremes

State Highs State Lows

Community

WunderPhotos

Upload Photos

1,834,067 photos uploaded!

WunderBlogs® & News

Nearby

Air Quality

  Air Quality AQ Index Pollutant
Not available.

Snow Depth

Station Depth Elevation

Earthquake Activity

City Distance Mag. Time & Date
Minimum magnitude displayed is 2.5.

Coastal Water Temperatures

Place Temperature

Stations

Nearby Weather Stations

Station Location Temp. Windchill Dew Point Humidity Wind Precip. Elev Updated Type
                   
Flood Warning
Statement as of 9:30 AM CDT on June 30, 2015

The Flood Warning continues for
the Red River near DeKalb, Texas at Pecan Point.
* Until further notice... or until the warning is cancelled.
* At 800 am Tuesday the stage was 27.7 feet.
* Moderate flooding is occurring and moderate flooding is forecast.
* Flood stage is 24 feet.
* Forecast... the river will continue to fall to a stage of 26.9 feet
by Wednesday morning.
* Impact... at 27.0 feet... flooding of some two thousand acres of flood
plain occur. Ranchers should move livestock and equipment to higher
ground. Moderate to severe bank erosion occurs.


Lat... Lon 3397 9516 3367 9448 3359 9448 3367 9475 3391 9516